Pagrindinis puslapis
METAR-TAF:

METAR-TAF

Oro uostai :

Abadanas, Iranas

platuma: 30-22N, ilguma: 048-15E, Aukštis: 3 m

Dabartinis oras

Ataskaita buvo paskelbta 1 valandą ir 8 minutes, ne 22:00 UTC
Vėjas 8 kt iš Šiaurės Vakarų
Temperatūra 30°C
Drėgmė 40%
Slėgis 1005 hPa
Matomumas 10 km arba daugiau
nėra debesų žemiau 1500 m ir nėra kamuolinių lietaus debesų

METAR: OIAA 272200Z 32008KT CAVOK 30/15 Q1005

Laikas: 02:38 (23:08 UTC)

Prognozė

Ataskaita buvo paskelbta 5 valandos ir 38 minutes, ne 17:30 UTC
Prognozė galioja nuo 27 metu 18 UTC su 28 metu 24 UTC
Vėjas 10 kt iš Vakarų
Matomumas: 7000 m
Laikinai
nuo 27 metu 20 UTC su 28 metu 05 UTC
Vėjas 18 kt iš Šiaurės Vakarų
Tikimybė 40%
nuo 28 metu 01 UTC su 28 metu 05 UTC
Matomumas: 5000 m
migla
Laikinai
nuo 28 metu 06 UTC su 28 metu 15 UTC
Vėjas 20 kt iš Vakarų

TAF: OIAA 271730Z 2718/2824 28010KT 7000 NSC TEMPO 2720/2805 32018KT PROB40 2801/2805 5000 HZ TEMPO 2806/2815 28020KT

Orai ataskaitas ir orų prognozės (METAR, TAF).

turimą stotys yra geltonos ir raudonos taškus žemėlapyje.

Perkelti pele per norėdami pamatyti stoties vardą.

Tada spustelėkite, norėdami matyti oro stebėjimo ir prognozės.

Norėdami pakeisti žemėlapį: spustelėkite ant žalios mygtukų su juodo kryžiaus žemyn,; žalią mygtuką su brūkšneliu, jei norite nutolinti; arba žalių rodyklių gretimoms žemėlapius.


METAR-TAF: